createdAt,value
2023-12-26T00:00:40.423Z,96932.75
2023-12-26T00:03:08.258Z,96941.66
2023-12-26T00:05:35.488Z,96937.66
2023-12-26T00:08:04.518Z,96951.69
2023-12-26T00:10:31.957Z,96964.44
2023-12-26T00:13:01.077Z,96955.53
2023-12-26T00:15:28.582Z,96966.38
2023-12-26T00:17:55.248Z,96966.38
2023-12-26T00:20:21.968Z,96950.47
2023-12-26T00:22:48.617Z,96930.41
2023-12-26T00:25:15.142Z,96934.25
2023-12-26T00:27:43.478Z,96917.78
2023-12-26T00:30:10.581Z,96864.00
2023-12-26T00:32:37.468Z,96858.22
2023-12-26T00:35:04.377Z,96864.06
2023-12-26T00:37:33.176Z,96852.72
2023-12-26T00:40:02.977Z,96847.44
2023-12-26T00:42:31.878Z,96820.69
2023-12-26T00:44:59.767Z,96821.22
2023-12-26T00:47:26.485Z,96812.47
2023-12-26T00:49:56.760Z,96813.38
2023-12-26T00:52:23.911Z,96803.66
2023-12-26T00:54:50.514Z,96792.44
2023-12-26T00:57:17.180Z,96800.44
2023-12-26T00:59:45.518Z,96799.16
2023-12-26T01:02:12.700Z,96788.44
2023-12-26T01:04:39.285Z,96785.22
2023-12-26T01:07:07.373Z,96782.59
2023-12-26T01:09:35.169Z,96792.53
2023-12-26T01:12:01.973Z,96805.72
2023-12-26T01:14:28.709Z,96785.72
2023-12-26T01:16:55.608Z,96760.09
2023-12-26T01:19:22.510Z,96790.16
2023-12-26T01:21:49.201Z,96752.16
2023-12-26T01:24:15.963Z,96739.75
2023-12-26T01:26:43.378Z,96723.56
2023-12-26T01:29:10.424Z,96709.28
2023-12-26T01:31:37.403Z,96703.22
2023-12-26T01:34:05.061Z,96688.63
2023-12-26T01:36:32.165Z,96660.94
2023-12-26T01:38:58.954Z,96670.72
2023-12-26T01:41:26.288Z,96672.72
2023-12-26T01:43:52.797Z,96682.84
2023-12-26T01:46:20.723Z,96636.19
2023-12-26T01:48:51.330Z,96647.09
2023-12-26T01:51:20.454Z,96637.19
2023-12-26T01:53:47.580Z,96627.22
2023-12-26T01:56:17.777Z,96618.31
2023-12-26T01:58:48.405Z,96615.06
2023-12-26T02:01:15.763Z,96606.38
2023-12-26T02:03:43.254Z,96608.75
2023-12-26T02:06:10.538Z,96599.28
2023-12-26T02:08:38.803Z,96618.19
2023-12-26T02:11:08.624Z,96614.94
2023-12-26T02:13:35.891Z,96587.41
2023-12-26T02:16:11.301Z,96628.13
2023-12-26T02:18:39.819Z,96617.94
2023-12-26T02:21:06.482Z,96628.50
2023-12-26T02:23:35.231Z,96616.31
2023-12-26T02:26:03.741Z,96606.56
2023-12-26T02:28:31.298Z,96595.63
2023-12-26T02:31:00.447Z,96641.94
2023-12-26T02:33:27.579Z,96655.13
2023-12-26T02:35:54.682Z,96652.50
2023-12-26T02:38:21.530Z,96641.75
2023-12-26T02:40:53.594Z,96660.22
2023-12-26T02:43:25.042Z,96636.03
2023-12-26T02:45:51.487Z,96661.16
2023-12-26T02:48:18.397Z,96634.63
2023-12-26T02:50:46.238Z,96641.56
2023-12-26T02:53:15.147Z,96626.09
2023-12-26T02:55:41.858Z,96640.28
2023-12-26T02:58:08.666Z,96613.53
2023-12-26T03:00:35.790Z,96622.31
2023-12-26T03:03:02.791Z,96618.81
2023-12-26T03:05:30.611Z,96652.59
2023-12-26T03:07:58.497Z,96664.91
2023-12-26T03:10:25.030Z,96703.44
2023-12-26T03:12:51.494Z,96724.63
2023-12-26T03:15:18.192Z,96730.28
2023-12-26T03:17:44.916Z,96773.41
2023-12-26T03:20:12.120Z,96796.59
2023-12-26T03:22:42.365Z,96816.41
2023-12-26T03:25:09.310Z,96818.56
2023-12-26T03:27:35.902Z,96867.72
2023-12-26T03:30:02.661Z,96891.81
2023-12-26T03:32:29.352Z,96897.94
2023-12-26T03:34:58.626Z,96909.13
2023-12-26T03:37:25.295Z,96922.31
2023-12-26T03:39:51.867Z,96928.44
2023-12-26T03:42:18.986Z,96936.53
2023-12-26T03:44:48.326Z,96951.97
2023-12-26T03:47:15.575Z,96948.50
2023-12-26T03:49:42.320Z,96965.69
2023-12-26T03:52:08.993Z,96962.78
2023-12-26T03:54:35.523Z,96939.69
2023-12-26T03:57:03.509Z,96988.56
2023-12-26T03:59:30.175Z,96952.22
2023-12-26T04:01:58.928Z,96938.59
2023-12-26T04:04:25.897Z,96957.72
2023-12-26T04:06:52.904Z,96941.88
2023-12-26T04:09:21.469Z,96958.28
2023-12-26T04:11:48.191Z,96960.00
2023-12-26T04:14:14.747Z,96968.56
2023-12-26T04:16:43.310Z,96986.59
2023-12-26T04:19:10.636Z,96987.06
2023-12-26T04:21:37.384Z,96983.41
2023-12-26T04:24:04.913Z,96977.66
2023-12-26T04:26:31.535Z,96996.59
2023-12-26T04:28:58.221Z,96991.50
2023-12-26T04:31:26.637Z,96997.53
2023-12-26T04:33:53.520Z,96998.78
2023-12-26T04:36:20.335Z,96998.34
2023-12-26T04:38:46.980Z,97007.00
2023-12-26T04:41:14.622Z,97014.47
2023-12-26T04:43:41.275Z,97020.81
2023-12-26T04:46:07.928Z,97018.75
2023-12-26T04:48:36.096Z,97032.13
2023-12-26T04:51:03.763Z,97041.50
2023-12-26T04:53:30.355Z,97067.81
2023-12-26T04:55:57.122Z,97065.38
2023-12-26T04:58:23.777Z,97076.56
2023-12-26T05:00:50.310Z,97079.00
2023-12-26T05:03:17.329Z,97095.69
2023-12-26T05:05:44.287Z,97111.16
2023-12-26T05:08:11.097Z,97119.72
2023-12-26T05:10:37.785Z,97135.75
2023-12-26T05:13:04.562Z,97131.13
2023-12-26T05:15:31.523Z,97133.94
2023-12-26T05:17:58.493Z,97154.16
2023-12-26T05:20:30.646Z,97154.25
2023-12-26T05:22:58.621Z,97167.75
2023-12-26T05:25:26.422Z,97199.25
2023-12-26T05:27:53.120Z,97200.44
2023-12-26T05:30:19.991Z,97199.09
2023-12-26T05:32:47.086Z,97200.25
2023-12-26T05:35:14.300Z,97219.84
2023-12-26T05:37:41.060Z,97208.00
2023-12-26T05:40:08.164Z,97235.44
2023-12-26T05:42:35.010Z,97234.75
2023-12-26T05:45:01.645Z,97222.94
2023-12-26T05:47:28.328Z,97239.41
2023-12-26T05:49:59.466Z,97249.00
2023-12-26T05:52:26.717Z,97244.75
2023-12-26T05:54:53.484Z,97225.28
2023-12-26T05:57:20.280Z,97235.13
2023-12-26T05:59:46.959Z,97264.19
2023-12-26T06:02:13.688Z,97258.25
2023-12-26T06:04:40.282Z,97267.19
2023-12-26T06:07:07.069Z,97249.69
2023-12-26T06:09:33.629Z,97260.25
2023-12-26T06:12:00.937Z,97285.03
2023-12-26T06:14:27.439Z,97285.16
2023-12-26T06:16:53.916Z,97287.59
2023-12-26T06:19:20.516Z,97285.97
2023-12-26T06:21:47.065Z,97295.25
2023-12-26T06:24:13.627Z,97281.31
2023-12-26T06:26:40.226Z,97289.13
2023-12-26T06:29:06.691Z,97283.03
2023-12-26T06:31:33.169Z,97306.75
2023-12-26T06:36:29.036Z,97293.22
2023-12-26T06:38:57.631Z,97323.31
2023-12-26T06:41:27.276Z,97322.84
2023-12-26T06:43:53.725Z,97323.31
2023-12-26T06:46:20.159Z,97324.47
2023-12-26T06:48:49.662Z,97323.38
2023-12-26T06:51:17.276Z,97322.53
2023-12-26T06:53:44.353Z,97331.44
2023-12-26T06:56:10.803Z,97343.47
2023-12-26T06:58:37.253Z,97333.94
2023-12-26T07:01:04.219Z,97327.72
2023-12-26T07:03:30.901Z,97344.25
2023-12-26T07:06:00.368Z,97351.50
2023-12-26T07:08:26.881Z,97336.97
2023-12-26T07:10:53.335Z,97346.22
2023-12-26T07:13:19.758Z,97334.69
2023-12-26T07:15:47.122Z,97321.47
2023-12-26T07:18:13.611Z,97315.75
2023-12-26T07:20:41.325Z,97322.16
2023-12-26T07:23:09.183Z,97331.41
2023-12-26T07:25:35.660Z,97293.00
2023-12-26T07:28:02.057Z,97320.19
2023-12-26T07:30:28.538Z,97325.19
2023-12-26T07:32:55.480Z,97319.75
2023-12-26T07:35:22.323Z,97321.56
2023-12-26T07:37:48.752Z,97319.91
2023-12-26T07:40:15.376Z,97325.53
2023-12-26T07:42:41.870Z,97317.94
2023-12-26T07:45:08.743Z,97309.38
2023-12-26T07:47:38.101Z,97332.81
2023-12-26T07:50:08.417Z,97331.63
2023-12-26T07:52:36.562Z,97326.34
2023-12-26T07:55:03.381Z,97330.09
2023-12-26T07:57:29.814Z,97344.91
2023-12-26T07:59:56.226Z,97348.91
2023-12-26T08:02:22.669Z,97370.97
2023-12-26T08:04:49.079Z,97360.75
2023-12-26T08:07:15.571Z,97370.63
2023-12-26T08:09:41.997Z,97380.84
2023-12-26T08:12:11.088Z,97389.41
2023-12-26T08:14:37.522Z,97385.63
2023-12-26T08:17:04.103Z,97390.72
2023-12-26T08:19:31.307Z,97386.13
2023-12-26T08:21:57.825Z,97410.88
2023-12-26T08:24:24.697Z,97405.25
2023-12-26T08:26:55.681Z,97398.53
2023-12-26T08:29:22.469Z,97398.88
2023-12-26T08:31:48.902Z,97401.00
2023-12-26T08:34:15.513Z,97398.31
2023-12-26T08:36:42.059Z,97400.91
2023-12-26T08:39:08.524Z,97416.06
2023-12-26T08:41:34.979Z,97429.56
2023-12-26T08:44:01.522Z,97425.56
2023-12-26T08:46:27.933Z,97447.81
2023-12-26T08:48:54.461Z,97470.44
2023-12-26T08:51:21.100Z,97476.72
2023-12-26T08:53:50.032Z,97480.00
2023-12-26T08:56:16.905Z,97483.91
2023-12-26T08:58:43.327Z,97537.81
2023-12-26T09:01:12.613Z,97532.09
2023-12-26T09:03:39.719Z,97550.94
2023-12-26T09:06:06.296Z,97585.94
2023-12-26T09:08:33.230Z,97568.81
2023-12-26T09:10:59.668Z,97606.72
2023-12-26T09:13:27.486Z,97603.34
2023-12-26T09:15:54.125Z,97634.75
2023-12-26T09:18:20.672Z,97653.44
2023-12-26T09:20:47.324Z,97665.47
2023-12-26T09:23:14.218Z,97670.66
2023-12-26T09:25:41.279Z,97654.63
2023-12-26T09:28:09.635Z,97682.34
2023-12-26T09:30:38.396Z,97721.69
2023-12-26T09:33:05.519Z,97724.56
2023-12-26T09:35:35.229Z,97747.06
2023-12-26T09:38:02.691Z,97748.41
2023-12-26T09:40:29.125Z,97746.00
2023-12-26T09:43:04.565Z,97748.09
2023-12-26T09:45:35.679Z,97769.84
2023-12-26T09:48:02.731Z,97765.31
2023-12-26T09:50:29.662Z,97785.00
2023-12-26T09:53:00.793Z,97795.69
2023-12-26T09:55:31.050Z,97798.06
2023-12-26T09:57:58.897Z,97804.69
2023-12-26T10:00:29.098Z,97792.78
2023-12-26T10:02:57.313Z,97810.31
2023-12-26T10:05:24.916Z,97800.41
2023-12-26T10:07:51.561Z,97790.03
2023-12-26T10:10:21.311Z,97782.94
2023-12-26T10:12:48.862Z,97767.13
2023-12-26T10:15:15.800Z,97744.31
2023-12-26T10:17:46.058Z,97743.66
2023-12-26T10:20:15.868Z,97738.69
2023-12-26T10:22:44.112Z,97740.53
2023-12-26T10:25:12.047Z,97732.91
2023-12-26T10:27:39.502Z,97724.00
2023-12-26T10:30:07.789Z,97700.75
2023-12-26T10:32:34.445Z,97664.31
2023-12-26T10:35:16.851Z,97632.13
2023-12-26T10:37:43.994Z,97627.34
2023-12-26T10:40:11.040Z,97602.28
2023-12-26T10:42:38.504Z,97568.78
2023-12-26T10:45:06.424Z,97545.88
2023-12-26T10:47:33.905Z,97517.97
2023-12-26T10:50:02.760Z,97487.91
2023-12-26T10:52:30.689Z,97457.94
2023-12-26T10:55:00.954Z,97436.16
2023-12-26T10:57:31.452Z,97400.81
2023-12-26T10:59:58.159Z,97385.81
2023-12-26T11:02:24.587Z,97365.53
2023-12-26T11:04:51.204Z,97353.63
2023-12-26T11:07:18.263Z,97322.13
2023-12-26T11:09:44.753Z,97304.94
2023-12-26T11:12:11.336Z,97295.53
2023-12-26T11:14:38.834Z,97278.25
2023-12-26T11:17:07.576Z,97252.84
2023-12-26T11:19:35.315Z,97248.00
2023-12-26T11:22:02.740Z,97245.13
2023-12-26T11:24:29.657Z,97244.63
2023-12-26T11:26:56.839Z,97208.75
2023-12-26T11:29:23.595Z,97197.25
2023-12-26T11:31:50.390Z,97209.09
2023-12-26T11:34:18.559Z,97204.41
2023-12-26T11:36:47.350Z,97176.13
2023-12-26T11:39:18.470Z,97160.63
2023-12-26T11:41:45.911Z,97139.88
2023-12-26T11:44:13.193Z,97110.69
2023-12-26T11:46:40.151Z,97095.63
2023-12-26T11:49:06.858Z,97072.88
2023-12-26T11:51:33.698Z,97053.28
2023-12-26T11:54:00.863Z,97038.31
2023-12-26T11:56:27.632Z,97005.13
2023-12-26T11:58:54.254Z,96977.72
2023-12-26T12:01:20.790Z,96959.53
2023-12-26T12:03:47.466Z,96958.28
2023-12-26T12:06:17.624Z,96937.25
2023-12-26T12:09:06.234Z,96942.09
2023-12-26T12:11:33.794Z,96920.53
2023-12-26T12:14:00.345Z,96921.78
2023-12-26T12:16:26.786Z,96900.75
2023-12-26T12:19:06.042Z,96887.03
2023-12-26T12:21:40.382Z,96899.31
2023-12-26T12:24:07.171Z,96897.34
2023-12-26T12:27:01.494Z,96902.97
2023-12-26T12:29:27.858Z,96916.78
2023-12-26T12:32:18.181Z,96927.06
2023-12-26T12:35:10.428Z,96947.50
2023-12-26T12:37:36.858Z,96933.22
2023-12-26T12:40:05.672Z,96970.28
2023-12-26T12:42:34.862Z,96973.66
2023-12-26T12:45:01.864Z,96993.78
2023-12-26T12:47:28.860Z,96990.25
2023-12-26T12:49:55.664Z,97004.34
2023-12-26T12:52:22.187Z,97011.25
2023-12-26T12:54:48.625Z,97023.81
2023-12-26T12:57:15.168Z,97025.53
2023-12-26T12:59:41.983Z,97031.19
2023-12-26T13:02:11.799Z,97058.75
2023-12-26T13:04:43.944Z,97053.78
2023-12-26T13:07:11.196Z,97066.31
2023-12-26T13:09:39.522Z,97042.50
2023-12-26T13:12:07.514Z,97084.09
2023-12-26T13:14:35.836Z,97091.63
2023-12-26T13:17:02.446Z,97110.59
2023-12-26T13:19:33.021Z,97108.78
2023-12-26T13:22:01.267Z,97131.16
2023-12-26T13:24:27.810Z,97132.19
2023-12-26T13:26:54.296Z,97142.22
2023-12-26T13:29:27.005Z,97145.66
2023-12-26T13:31:57.288Z,97157.84
2023-12-26T13:34:28.760Z,97165.91
2023-12-26T13:36:55.433Z,97160.03
2023-12-26T13:39:21.972Z,97174.94
2023-12-26T13:41:48.559Z,97185.19
2023-12-26T13:44:18.588Z,97195.09
2023-12-26T13:46:45.108Z,97221.81
2023-12-26T13:49:12.022Z,97228.03
2023-12-26T13:51:41.108Z,97250.16
2023-12-26T13:54:08.815Z,97260.69
2023-12-26T13:56:35.269Z,97290.84
2023-12-26T13:59:02.531Z,97286.03
2023-12-26T14:01:29.173Z,97290.00
2023-12-26T14:03:57.459Z,97311.09
2023-12-26T14:06:24.428Z,97330.84
2023-12-26T14:08:52.248Z,97346.34
2023-12-26T14:11:20.769Z,97342.75
2023-12-26T14:13:48.048Z,97357.22
2023-12-26T14:16:16.144Z,97363.81
2023-12-26T14:18:43.125Z,97364.16
2023-12-26T14:21:09.876Z,97376.97
2023-12-26T14:23:36.454Z,97381.09
2023-12-26T14:26:02.990Z,97415.38
2023-12-26T14:28:29.480Z,97438.28
2023-12-26T14:30:56.079Z,97455.91
2023-12-26T14:33:22.894Z,97467.28
2023-12-26T14:35:50.589Z,97503.69
2023-12-26T14:38:18.193Z,97524.78
2023-12-26T14:40:48.569Z,97540.09
2023-12-26T14:43:16.690Z,97555.44
2023-12-26T14:45:43.250Z,97566.50
2023-12-26T14:48:09.907Z,97570.75
2023-12-26T14:50:36.611Z,97585.25
2023-12-26T14:53:03.241Z,97592.84
2023-12-26T14:55:30.116Z,97599.59
2023-12-26T14:57:56.856Z,97606.34
2023-12-26T15:00:23.383Z,97625.44
2023-12-26T15:02:49.937Z,97655.06
2023-12-26T15:05:16.623Z,97670.84
2023-12-26T15:07:43.381Z,97704.03
2023-12-26T15:10:10.183Z,97741.66
2023-12-26T15:12:36.642Z,97775.81
2023-12-26T15:15:04.545Z,97775.72
2023-12-26T15:17:31.154Z,97842.56
2023-12-26T15:19:57.785Z,97866.16
2023-12-26T15:22:24.431Z,97878.44
2023-12-26T15:24:51.080Z,97913.47
2023-12-26T15:27:17.549Z,97911.97
2023-12-26T15:29:46.814Z,97917.16
2023-12-26T15:32:13.361Z,97938.25
2023-12-26T15:34:41.300Z,97957.47
2023-12-26T15:37:07.816Z,97969.03
2023-12-26T15:39:35.695Z,98004.22
2023-12-26T15:42:04.202Z,98021.72
2023-12-26T15:44:30.746Z,98036.75
2023-12-26T15:46:57.158Z,98050.63
2023-12-26T15:49:23.693Z,98041.00
2023-12-26T15:51:50.184Z,98070.91
2023-12-26T15:54:17.748Z,98079.53
2023-12-26T15:56:44.687Z,98098.66
2023-12-26T15:59:11.532Z,98111.97
2023-12-26T16:01:37.978Z,98116.97
2023-12-26T16:04:05.920Z,98141.66
2023-12-26T16:06:34.320Z,98155.78
2023-12-26T16:09:01.318Z,98161.91
2023-12-26T16:11:28.492Z,98152.22
2023-12-26T16:13:55.481Z,98170.94
2023-12-26T16:16:22.673Z,98179.91
2023-12-26T16:18:51.392Z,98211.22
2023-12-26T16:21:19.464Z,98208.44
2023-12-26T16:23:46.820Z,98216.75
2023-12-26T16:26:13.992Z,98225.63
2023-12-26T16:28:41.197Z,98248.59
2023-12-26T16:31:09.303Z,98251.81
2023-12-26T16:33:37.357Z,98271.78
2023-12-26T16:36:06.094Z,98277.44
2023-12-26T16:38:33.469Z,98291.28
2023-12-26T16:41:07.184Z,98297.66
2023-12-26T16:43:34.033Z,98308.19
2023-12-26T16:46:05.810Z,98323.72
2023-12-26T16:48:36.650Z,98331.22
2023-12-26T16:51:07.605Z,98333.97
2023-12-26T16:53:36.706Z,98324.16
2023-12-26T16:56:08.623Z,98328.69
2023-12-26T16:58:35.060Z,98362.53
2023-12-26T17:01:01.605Z,98360.56
2023-12-26T17:03:28.148Z,98368.34
2023-12-26T17:05:54.747Z,98366.13
2023-12-26T17:08:21.254Z,98373.31
2023-12-26T17:10:48.020Z,98385.81
2023-12-26T17:13:14.588Z,98391.91
2023-12-26T17:15:43.512Z,98400.22
2023-12-26T17:18:10.830Z,98404.25
2023-12-26T17:20:37.687Z,98378.44
2023-12-26T17:23:04.331Z,98407.44
2023-12-26T17:25:30.795Z,98414.34
2023-12-26T17:27:57.897Z,98417.13
2023-12-26T17:30:24.612Z,98414.63
2023-12-26T17:32:51.572Z,98417.41
2023-12-26T17:35:18.144Z,98430.72
2023-12-26T17:37:44.568Z,98426.41
2023-12-26T17:40:11.536Z,98440.16
2023-12-26T17:42:38.080Z,98443.31
2023-12-26T17:45:06.264Z,98440.13
2023-12-26T17:47:33.870Z,98428.47
2023-12-26T17:50:00.799Z,98447.91
2023-12-26T17:52:27.503Z,98452.06
2023-12-26T17:54:53.952Z,98445.81
2023-12-26T17:57:20.428Z,98470.34
2023-12-26T17:59:47.298Z,98474.66
2023-12-26T18:02:13.807Z,98474.81
2023-12-26T18:04:40.213Z,98471.19
2023-12-26T18:07:09.170Z,98469.75
2023-12-26T18:09:37.533Z,98476.97
2023-12-26T18:12:05.334Z,98489.34
2023-12-26T18:14:31.772Z,98496.53
2023-12-26T18:17:00.115Z,98485.56
2023-12-26T18:19:26.707Z,98512.06
2023-12-26T18:21:53.174Z,98498.03
2023-12-26T18:24:21.228Z,98513.81
2023-12-26T18:26:48.024Z,98512.72
2023-12-26T18:29:14.465Z,98515.50
2023-12-26T18:31:44.778Z,98518.56
2023-12-26T18:34:12.078Z,98526.56
2023-12-26T18:36:38.702Z,98524.63
2023-12-26T18:39:05.294Z,98531.00
2023-12-26T18:41:31.784Z,98544.81
2023-12-26T18:43:58.289Z,98544.84
2023-12-26T18:46:24.757Z,98558.41
2023-12-26T18:48:51.344Z,98558.06
2023-12-26T18:51:27.281Z,98558.47
2023-12-26T18:53:54.224Z,98556.16
2023-12-26T18:56:20.697Z,98565.88
2023-12-26T18:58:48.003Z,98551.44
2023-12-26T19:01:14.857Z,98559.22
2023-12-26T19:03:42.805Z,98552.09
2023-12-26T19:06:09.484Z,98575.28
2023-12-26T19:08:36.849Z,98565.41
2023-12-26T19:11:03.403Z,98585.16
2023-12-26T19:13:29.821Z,98572.97
2023-12-26T19:15:56.710Z,98579.38
2023-12-26T19:18:23.787Z,98573.94
2023-12-26T19:20:50.522Z,98576.94
2023-12-26T19:23:17.545Z,98582.50
2023-12-26T19:25:44.447Z,98587.00
2023-12-26T19:28:11.895Z,98584.97
2023-12-26T19:30:38.986Z,98584.06
2023-12-26T19:33:05.986Z,98581.50
2023-12-26T19:35:32.774Z,98570.78
2023-12-26T19:37:59.455Z,98581.41
2023-12-26T19:40:26.495Z,98590.41
2023-12-26T19:42:53.840Z,98581.22
2023-12-26T19:45:20.763Z,98579.69
2023-12-26T19:47:47.511Z,98584.00
2023-12-26T19:50:14.220Z,98582.50
2023-12-26T19:52:40.637Z,98578.59
2023-12-26T19:55:10.443Z,98591.31
2023-12-26T19:57:37.043Z,98598.28
2023-12-26T20:00:06.953Z,98600.91
2023-12-26T20:02:33.771Z,98599.03
2023-12-26T20:05:00.434Z,98610.06
2023-12-26T20:07:26.981Z,98612.13
2023-12-26T20:09:54.144Z,98601.78
2023-12-26T20:12:22.345Z,98616.63
2023-12-26T20:14:49.738Z,98628.50
2023-12-26T20:17:16.334Z,98623.28
2023-12-26T20:19:42.858Z,98636.91
2023-12-26T20:22:09.545Z,98632.00
2023-12-26T20:24:36.008Z,98636.72
2023-12-26T20:27:04.655Z,98648.59
2023-12-26T20:29:31.106Z,98653.25
2023-12-26T20:31:57.985Z,98660.00
2023-12-26T20:34:24.500Z,98652.31
2023-12-26T20:36:51.245Z,98659.09
2023-12-26T20:39:20.960Z,98661.16
2023-12-26T20:41:53.358Z,98665.00
2023-12-26T20:44:20.187Z,98671.91
2023-12-26T20:46:48.153Z,98662.28
2023-12-26T20:49:15.348Z,98670.94
2023-12-26T20:51:43.978Z,98656.09
2023-12-26T20:54:12.556Z,98680.59
2023-12-26T20:56:40.810Z,98679.47
2023-12-26T20:59:07.615Z,98672.13
2023-12-26T21:01:34.773Z,98678.53
2023-12-26T21:04:03.326Z,98685.34
2023-12-26T21:06:30.071Z,98677.59
2023-12-26T21:08:57.288Z,98678.81
2023-12-26T21:11:23.803Z,98683.34
2023-12-26T21:13:55.679Z,98702.09
2023-12-26T21:16:22.186Z,98717.06
2023-12-26T21:18:52.978Z,98709.78
2023-12-26T21:21:20.918Z,98716.13
2023-12-26T21:23:47.913Z,98725.44
2023-12-26T21:26:17.909Z,98731.28
2023-12-26T21:28:44.943Z,98738.56
2023-12-26T21:31:12.667Z,98736.91
2023-12-26T21:33:41.447Z,98727.13
2023-12-26T21:36:09.865Z,98735.81
2023-12-26T21:38:36.315Z,98743.75
2023-12-26T21:41:04.273Z,98759.59
2023-12-26T21:43:30.831Z,98754.03
2023-12-26T21:45:57.795Z,98749.19
2023-12-26T21:48:24.965Z,98777.69
2023-12-26T21:50:51.619Z,98774.94
2023-12-26T21:53:18.292Z,98760.50
2023-12-26T21:55:44.809Z,98781.28
2023-12-26T21:58:11.261Z,98778.50
2023-12-26T22:00:37.859Z,98774.22
2023-12-26T22:03:05.374Z,98779.00
2023-12-26T22:05:31.995Z,98778.50
2023-12-26T22:07:58.779Z,98781.28
2023-12-26T22:10:25.350Z,98785.25
2023-12-26T22:12:51.831Z,98794.31
2023-12-26T22:15:23.783Z,98786.91
2023-12-26T22:17:53.849Z,98785.25
2023-12-26T22:20:20.320Z,98791.94
2023-12-26T22:22:46.738Z,98801.63
2023-12-26T22:25:14.279Z,98801.97
2023-12-26T22:27:42.244Z,98801.72
2023-12-26T22:30:09.160Z,98775.72
2023-12-26T22:32:35.725Z,98799.84
2023-12-26T22:35:02.718Z,98805.59
2023-12-26T22:37:29.967Z,98801.16
2023-12-26T22:39:56.463Z,98803.28
2023-12-26T22:42:22.915Z,98808.44
2023-12-26T22:44:49.763Z,98818.72
2023-12-26T22:47:16.256Z,98822.31
2023-12-26T22:49:42.833Z,98824.69
2023-12-26T22:52:10.990Z,98824.94
2023-12-26T22:54:40.524Z,98821.13
2023-12-26T22:57:08.288Z,98843.59
2023-12-26T22:59:34.807Z,98835.97
2023-12-26T23:02:01.735Z,98844.09
2023-12-26T23:04:28.284Z,98835.38
2023-12-26T23:06:54.702Z,98830.97
2023-12-26T23:09:21.174Z,98836.56
2023-12-26T23:11:47.676Z,98833.13
2023-12-26T23:14:14.109Z,98841.72
2023-12-26T23:16:41.961Z,98826.41
2023-12-26T23:19:13.045Z,98826.41
2023-12-26T23:21:40.067Z,98825.22
2023-12-26T23:24:07.157Z,98832.75
2023-12-26T23:26:33.778Z,98835.88
2023-12-26T23:29:01.356Z,98824.75
2023-12-26T23:31:31.111Z,98832.88
2023-12-26T23:33:58.818Z,98833.25
2023-12-26T23:36:25.376Z,98828.09
2023-12-26T23:38:51.870Z,98825.47
2023-12-26T23:41:18.324Z,98826.19
2023-12-26T23:43:44.771Z,98821.66
2023-12-26T23:46:12.271Z,98820.69
2023-12-26T23:48:45.083Z,98826.53
2023-12-26T23:51:11.919Z,98810.06
2023-12-26T23:53:38.446Z,98822.13
2023-12-26T23:56:05.372Z,98828.84
2023-12-26T23:58:31.929Z,98828.56
